Time;durP1;ratioP1;P1;durP2;ratioP2;P2;SDS_P1;SDS_P2;PMS_P1;PMS_P2;Temp;Humidity;BMP_temperature;BMP_pressure;BME280_temperature;BME280_humidity;BME280_pressure;Samples;Min_cycle;Max_cycle;Signal;HPM_P1;HPM_P2
2021/09/14 00:00:59;;;;;;;7.43;5.68;;;16.60;92.30;;;;;;5031170;28;20025;-67
2021/09/14 00:03:25;;;;;;;6.60;5.90;;;16.60;92.30;;;;;;5024308;28;20030;-67
2021/09/14 00:05:50;;;;;;;6.30;5.60;;;16.60;92.30;;;;;;5011291;28;20386;-67
2021/09/14 00:08:16;;;;;;;6.80;6.07;;;16.60;92.30;;;;;;5026591;28;20029;-66
2021/09/14 00:10:41;;;;;;;9.43;5.97;;;16.60;92.40;;;;;;5031267;28;20151;-68
2021/09/14 00:13:08;;;;;;;6.97;6.28;;;16.60;92.40;;;;;;5030968;28;20150;-67
2021/09/14 00:15:34;;;;;;;7.68;6.07;;;16.50;92.40;;;;;;5030850;28;20021;-67
2021/09/14 00:17:59;;;;;;;7.13;5.53;;;16.50;92.40;;;;;;5031448;28;20036;-68
2021/09/14 00:20:25;;;;;;;6.05;5.25;;;16.40;92.50;;;;;;5030994;28;20096;-68
2021/09/14 00:22:50;;;;;;;6.40;5.60;;;16.40;92.60;;;;;;5030612;28;20470;-67
2021/09/14 00:25:16;;;;;;;5.90;4.97;;;16.30;92.50;;;;;;5031070;28;20497;-67
2021/09/14 00:27:42;;;;;;;7.82;5.40;;;16.30;92.60;;;;;;5013084;28;20025;-67
2021/09/14 00:30:08;;;;;;;7.35;5.50;;;16.30;92.60;;;;;;5016267;28;20034;-67
2021/09/14 00:32:33;;;;;;;7.70;5.22;;;16.30;92.50;;;;;;5030518;28;20036;-67
2021/09/14 00:34:59;;;;;;;13.60;5.53;;;16.30;92.60;;;;;;5030654;28;20034;-67
2021/09/14 00:37:25;;;;;;;6.03;5.32;;;16.30;92.60;;;;;;5030763;28;20017;-67
2021/09/14 00:39:50;;;;;;;6.68;4.82;;;16.40;92.60;;;;;;5030568;28;20097;-68
2021/09/14 00:42:16;;;;;;;6.63;4.55;;;16.40;92.60;;;;;;5012923;28;20030;-68
2021/09/14 00:44:42;;;;;;;6.00;4.95;;;16.40;92.60;;;;;;5030234;28;20029;-67
2021/09/14 00:47:07;;;;;;;7.13;5.38;;;16.50;92.60;;;;;;5029846;28;20038;-67
2021/09/14 00:49:33;;;;;;;6.43;5.65;;;16.40;92.50;;;;;;5030824;28;20021;-68
2021/09/14 00:52:00;;;;;;;7.57;5.47;;;16.40;92.50;;;;;;5030505;28;20049;-67
2021/09/14 00:54:26;;;;;;;10.18;5.68;;;16.40;92.50;;;;;;5029406;28;20421;-67
2021/09/14 00:56:52;;;;;;;6.75;4.95;;;16.40;92.90;;;;;;5030802;28;20040;-66
2021/09/14 00:59:17;;;;;;;5.72;4.63;;;16.40;92.70;;;;;;5030125;28;20017;-67
2021/09/14 01:01:43;;;;;;;5.63;5.00;;;16.40;93.00;;;;;;5027648;28;20029;-67
2021/09/14 01:04:24;;;;;;;6.38;4.53;;;16.40;92.80;;;;;;5030170;28;20025;-67
2021/09/14 01:06:50;;;;;;;6.15;4.93;;;16.40;92.80;;;;;;5027285;28;20110;-67
2021/09/14 01:09:16;;;;;;;5.40;4.90;;;16.50;92.60;;;;;;5029442;28;20493;-67
2021/09/14 01:11:42;;;;;;;6.45;5.38;;;16.40;92.60;;;;;;5030023;28;20034;-67
2021/09/14 01:14:09;;;;;;;6.40;4.70;;;16.40;92.60;;;;;;5029853;28;20029;-67
2021/09/14 01:16:37;;;;;;;5.20;4.45;;;16.40;92.70;;;;;;5030106;28;20026;-67
2021/09/14 01:19:04;;;;;;;6.93;5.55;;;16.40;92.70;;;;;;5029687;28;20100;-67
2021/09/14 01:21:31;;;;;;;5.95;4.85;;;16.40;92.80;;;;;;5030083;28;20021;-67
2021/09/14 01:23:57;;;;;;;6.13;4.88;;;16.40;92.70;;;;;;5029596;28;20087;-67
2021/09/14 01:26:24;;;;;;;5.20;4.70;;;16.40;92.60;;;;;;5030256;28;20128;-67
2021/09/14 01:28:50;;;;;;;6.93;5.05;;;16.40;92.70;;;;;;5029867;28;20025;-67
2021/09/14 01:31:16;;;;;;;5.28;4.78;;;16.40;92.60;;;;;;5030281;28;20497;-67
2021/09/14 01:33:52;;;;;;;5.57;4.53;;;16.40;92.50;;;;;;5029229;28;20021;-67
2021/09/14 01:36:19;;;;;;;6.10;5.13;;;16.40;92.60;;;;;;5029813;28;20109;-67
2021/09/14 01:38:46;;;;;;;5.38;4.88;;;16.40;92.70;;;;;;5030225;28;20040;-67
2021/09/14 01:41:12;;;;;;;7.38;4.75;;;16.40;92.70;;;;;;5012172;28;20030;-67
2021/09/14 01:43:40;;;;;;;4.82;4.40;;;16.40;92.60;;;;;;5028876;28;20400;-67
2021/09/14 01:46:06;;;;;;;5.47;4.95;;;16.30;92.50;;;;;;5029985;28;20021;-67
2021/09/14 01:48:32;;;;;;;5.80;4.70;;;16.30;92.60;;;;;;5029998;28;20036;-67
2021/09/14 01:50:57;;;;;;;5.82;4.82;;;16.30;92.70;;;;;;5029747;28;20394;-67
2021/09/14 01:53:25;;;;;;;7.07;5.05;;;16.30;92.60;;;;;;5029589;28;20026;-66
2021/09/14 01:55:53;;;;;;;5.68;5.05;;;16.30;92.60;;;;;;5029931;28;20109;-67
2021/09/14 01:58:19;;;;;;;5.85;5.10;;;16.20;92.70;;;;;;5029696;28;20064;-67
2021/09/14 02:01:12;;;;;;;6.22;5.63;;;16.20;92.70;;;;;;5029256;28;20022;-67
2021/09/14 02:03:58;;;;;;;5.45;4.90;;;16.20;92.70;;;;;;5018222;28;20054;-67
2021/09/14 02:08:57;;;;;;;7.07;5.88;;;16.10;92.80;;;;;;5016235;28;20049;-67
2021/09/14 02:38:39;;;;;;;7.68;6.65;;;15.90;93.00;;;;;;5032462;28;20394;-67
2021/09/14 02:59:33;;;;;;;;;;;15.90;93.00;;;;;;5033383;28;20480;-68
2021/09/14 03:01:59;;;;;;;10.98;9.07;;;15.90;92.90;;;;;;5032850;28;19951;-68
2021/09/14 03:04:25;;;;;;;9.43;8.00;;;15.80;93.00;;;;;;5019334;28;20083;-69
2021/09/14 03:06:50;;;;;;;13.05;7.85;;;15.80;93.10;;;;;;5031772;28;20389;-67
2021/09/14 03:09:16;;;;;;;9.35;6.93;;;15.80;93.10;;;;;;5032686;28;20033;-67
2021/09/14 03:11:42;;;;;;;8.80;7.53;;;15.80;93.20;;;;;;5031811;28;20037;-68
2021/09/14 03:14:07;;;;;;;11.55;7.35;;;15.80;93.20;;;;;;5032081;28;20026;-67
2021/09/14 03:16:34;;;;;;;9.00;7.07;;;15.80;93.20;;;;;;5032365;28;20053;-66
2021/09/14 03:18:59;;;;;;;8.68;7.13;;;15.80;93.30;;;;;;5032582;28;20125;-68
2021/09/14 03:21:25;;;;;;;7.78;6.03;;;15.80;93.30;;;;;;5032190;28;20515;-69
2021/09/14 03:23:51;;;;;;;7.28;6.00;;;15.80;93.30;;;;;;5031998;28;20103;-67
2021/09/14 03:26:16;;;;;;;8.63;6.72;;;15.80;93.30;;;;;;5031348;28;20099;-67
2021/09/14 03:28:42;;;;;;;8.43;6.82;;;15.80;93.30;;;;;;5031869;28;20032;-68
2021/09/14 03:31:08;;;;;;;8.52;5.90;;;15.80;93.20;;;;;;5032354;28;20138;-68
2021/09/14 03:33:34;;;;;;;8.77;5.47;;;15.80;93.20;;;;;;5031736;28;20025;-69
2021/09/14 03:35:59;;;;;;;7.90;5.60;;;15.70;93.20;;;;;;5031988;28;20025;-67
2021/09/14 03:38:25;;;;;;;6.32;5.72;;;15.70;93.30;;;;;;5032083;28;20097;-67
2021/09/14 03:40:50;;;;;;;5.95;5.35;;;15.70;93.30;;;;;;5031117;28;20029;-67
2021/09/14 03:43:17;;;;;;;6.50;5.40;;;15.60;93.20;;;;;;5031465;28;20445;-68
2021/09/14 03:45:48;;;;;;;6.60;5.68;;;15.60;93.30;;;;;;5032083;28;20021;-67
2021/09/14 03:48:14;;;;;;;7.60;5.40;;;15.60;93.30;;;;;;5031948;28;20018;-67
2021/09/14 03:50:41;;;;;;;6.35;5.38;;;15.60;93.20;;;;;;5031657;28;20025;-68
2021/09/14 03:53:06;;;;;;;6.15;5.55;;;15.50;93.20;;;;;;5031477;28;20033;-68
2021/09/14 03:55:32;;;;;;;6.35;5.38;;;15.50;93.20;;;;;;5030708;28;20408;-67
2021/09/14 03:57:57;;;;;;;5.15;4.63;;;15.50;93.20;;;;;;5012003;28;20028;-67
2021/09/14 04:00:23;;;;;;;7.85;5.40;;;15.40;93.20;;;;;;5011755;28;20033;-67
2021/09/14 04:02:56;;;;;;;5.82;5.22;;;15.40;93.10;;;;;;5011272;28;20105;-67
2021/09/14 04:10:34;;;;;;;7.22;5.47;;;15.30;93.10;;;;;;5031344;28;20593;-68
2021/09/14 04:12:59;;;;;;;5.75;5.13;;;15.30;93.20;;;;;;5030955;28;20061;-67
2021/09/14 04:15:25;;;;;;;6.95;5.80;;;15.30;93.30;;;;;;5031309;28;20064;-67
2021/09/14 04:17:51;;;;;;;6.43;5.80;;;15.30;93.20;;;;;;5030998;28;20021;-69
2021/09/14 04:20:16;;;;;;;5.93;5.32;;;15.20;93.10;;;;;;5030973;28;20048;-67
2021/09/14 04:22:42;;;;;;;9.25;6.63;;;15.20;93.10;;;;;;5030853;28;20049;-67
2021/09/14 04:25:08;;;;;;;9.82;7.43;;;15.20;93.10;;;;;;5031410;28;20061;-67
2021/09/14 04:27:33;;;;;;;9.18;7.10;;;15.20;93.30;;;;;;5031110;28;20029;-70
2021/09/14 04:29:59;;;;;;;8.10;7.20;;;15.10;93.30;;;;;;5030802;28;20052;-69
2021/09/14 04:32:24;;;;;;;10.18;8.52;;;15.10;93.20;;;;;;5031104;28;20056;-67
2021/09/14 04:34:50;;;;;;;9.95;8.38;;;15.00;93.20;;;;;;5030951;28;20108;-68
2021/09/14 04:37:15;;;;;;;10.32;8.25;;;15.00;93.30;;;;;;5029988;28;20095;-68
2021/09/14 04:39:41;;;;;;;10.98;8.75;;;15.00;93.30;;;;;;5031151;28;20381;-67
2021/09/14 04:42:07;;;;;;;11.73;8.77;;;15.00;93.30;;;;;;5013111;28;20037;-67
2021/09/14 04:44:32;;;;;;;11.70;9.10;;;14.90;93.30;;;;;;5030312;28;20033;-67
2021/09/14 04:46:58;;;;;;;11.02;8.93;;;14.90;93.40;;;;;;5030894;28;20441;-68
2021/09/14 04:49:23;;;;;;;11.02;8.82;;;14.90;93.40;;;;;;5030868;28;20099;-67
2021/09/14 04:51:49;;;;;;;13.30;7.97;;;15.00;93.50;;;;;;5031135;28;20029;-67
2021/09/14 04:54:14;;;;;;;12.32;7.28;;;15.00;93.50;;;;;;5030446;28;20434;-68
2021/09/14 04:56:40;;;;;;;7.38;6.30;;;15.00;93.50;;;;;;5030711;28;20087;-68
2021/09/14 04:59:05;;;;;;;8.30;5.90;;;15.00;93.50;;;;;;5030455;28;20342;-67
2021/09/14 05:01:31;;;;;;;6.47;5.75;;;14.90;93.40;;;;;;5030777;28;20021;-67
2021/09/14 05:03:57;;;;;;;6.05;5.47;;;14.90;93.50;;;;;;5001846;28;20100;-67
2021/09/14 05:06:22;;;;;;;7.53;6.57;;;14.90;93.40;;;;;;5010484;28;20039;-68
2021/09/14 05:08:48;;;;;;;8.32;6.10;;;14.90;93.50;;;;;;5011032;28;20513;-68
2021/09/14 05:11:13;;;;;;;7.10;6.40;;;14.80;93.60;;;;;;5010792;28;20030;-68
2021/09/14 05:13:39;;;;;;;7.85;6.35;;;14.90;93.70;;;;;;5013439;28;20119;-68
2021/09/14 05:16:05;;;;;;;6.10;5.47;;;14.80;93.70;;;;;;5030337;28;20088;-68
2021/09/14 05:18:31;;;;;;;7.88;6.32;;;14.90;93.80;;;;;;5030431;28;20021;-67
2021/09/14 05:20:57;;;;;;;8.02;6.20;;;14.90;93.80;;;;;;5030001;28;20436;-67
2021/09/14 05:23:33;;;;;;;6.82;6.05;;;14.90;93.80;;;;;;5029958;28;20022;-67
2021/09/14 05:26:03;;;;;;;6.90;6.20;;;14.90;93.90;;;;;;5022972;28;20030;-69
2021/09/14 05:28:29;;;;;;;8.07;5.95;;;14.90;93.80;;;;;;5028272;28;20052;-67
2021/09/14 05:30:55;;;;;;;6.93;5.60;;;14.90;93.80;;;;;;5030156;28;20070;-68
2021/09/14 05:33:21;;;;;;;7.15;5.93;;;15.00;93.90;;;;;;5029688;28;20044;-69
2021/09/14 05:35:52;;;;;;;7.22;6.53;;;15.00;93.90;;;;;;5029942;28;20431;-66
2021/09/14 05:38:20;;;;;;;8.57;6.13;;;15.00;93.90;;;;;;5030324;28;20033;-67
2021/09/14 05:40:47;;;;;;;7.10;6.40;;;15.00;93.90;;;;;;5029663;28;20025;-67
2021/09/14 05:43:13;;;;;;;8.60;6.55;;;15.00;93.80;;;;;;5029758;28;20432;-68
2021/09/14 05:45:39;;;;;;;6.93;6.22;;;14.90;93.90;;;;;;5029669;28;20116;-68
2021/09/14 05:48:04;;;;;;;7.50;6.75;;;14.90;93.90;;;;;;5029853;28;20109;-67
2021/09/14 05:50:30;;;;;;;7.90;6.45;;;14.90;93.90;;;;;;5033964;28;20029;-68
2021/09/14 05:52:56;;;;;;;7.30;6.47;;;14.90;94.00;;;;;;5033528;28;20105;-69
2021/09/14 05:55:21;;;;;;;9.43;6.60;;;14.90;94.10;;;;;;5033527;28;20509;-69
2021/09/14 05:57:47;;;;;;;7.18;6.07;;;14.90;94.10;;;;;;5033688;28;20060;-67
2021/09/14 06:00:13;;;;;;;8.40;7.10;;;15.00;94.20;;;;;;5033885;28;20021;-67
2021/09/14 06:02:39;;;;;;;8.55;6.05;;;15.00;94.30;;;;;;5033117;28;20492;-66
2021/09/14 06:05:05;;;;;;;9.38;6.15;;;15.10;94.20;;;;;;4996197;28;20029;-67
2021/09/14 06:07:31;;;;;;;11.73;6.78;;;15.10;94.20;;;;;;5013847;28;20437;-67
2021/09/14 06:09:57;;;;;;;9.60;5.53;;;15.10;94.10;;;;;;5020570;28;20044;-67
2021/09/14 06:12:23;;;;;;;7.57;6.57;;;15.20;94.10;;;;;;5033527;28;20065;-68
2021/09/14 06:14:49;;;;;;;8.93;6.55;;;15.20;94.20;;;;;;5032922;28;20017;-67
2021/09/14 06:17:14;;;;;;;10.20;6.47;;;15.30;94.30;;;;;;5032436;28;20336;-68
2021/09/14 06:19:40;;;;;;;9.38;7.18;;;15.40;94.30;;;;;;5032877;28;20540;-69
2021/09/14 06:22:05;;;;;;;8.43;7.07;;;15.40;94.30;;;;;;5033576;28;20152;-67
2021/09/14 06:24:31;;;;;;;7.57;6.57;;;15.50;94.30;;;;;;5033031;28;20547;-67
2021/09/14 06:26:57;;;;;;;11.20;6.93;;;15.50;94.30;;;;;;5015627;28;20072;-67
2021/09/14 06:29:23;;;;;;;9.57;7.03;;;15.60;94.40;;;;;;5015267;28;20093;-67
2021/09/14 06:31:48;;;;;;;14.35;7.57;;;15.60;94.30;;;;;;5016852;28;20047;-68
2021/09/14 06:34:14;;;;;;;12.35;6.88;;;15.60;94.30;;;;;;5032786;28;20029;-67
2021/09/14 06:36:40;;;;;;;8.45;6.80;;;15.70;94.30;;;;;;5033148;28;20033;-68
2021/09/14 06:39:05;;;;;;;9.70;6.65;;;15.70;94.40;;;;;;5033317;28;20027;-68
2021/09/14 06:41:31;;;;;;;11.20;7.95;;;15.70;94.40;;;;;;5032944;28;20033;-68
2021/09/14 06:43:58;;;;;;;10.65;7.65;;;15.80;94.40;;;;;;5032570;28;20064;-68
2021/09/14 06:46:24;;;;;;;11.10;7.22;;;15.90;94.50;;;;;;5032051;28;20022;-67
2021/09/14 06:48:49;;;;;;;11.23;7.22;;;15.90;94.40;;;;;;5032817;28;20393;-68
2021/09/14 06:51:15;;;;;;;11.18;7.07;;;16.00;94.50;;;;;;5032761;28;20040;-68
2021/09/14 06:53:41;;;;;;;10.73;7.78;;;16.10;94.40;;;;;;5032486;28;20533;-69
2021/09/14 06:56:07;;;;;;;8.35;6.70;;;16.10;94.40;;;;;;5032791;28;20037;-67
2021/09/14 06:58:32;;;;;;;9.40;7.25;;;16.20;94.40;;;;;;5032975;28;20025;-67
2021/09/14 07:00:58;;;;;;;10.73;7.25;;;16.20;94.40;;;;;;5030547;28;20489;-68
2021/09/14 07:03:24;;;;;;;14.15;6.93;;;16.30;94.40;;;;;;5026254;28;20030;-68
2021/09/14 07:05:49;;;;;;;8.20;7.35;;;16.40;94.50;;;;;;5012754;28;20028;-69
2021/09/14 07:08:15;;;;;;;9.55;6.45;;;16.50;94.40;;;;;;5012847;28;20018;-68
2021/09/14 07:10:41;;;;;;;11.07;7.13;;;16.60;94.40;;;;;;5012863;28;20037;-68
2021/09/14 07:13:06;;;;;;;10.27;7.13;;;16.70;94.30;;;;;;5012282;28;20087;-68
2021/09/14 07:15:32;;;;;;;10.80;7.10;;;16.90;94.30;;;;;;5000102;28;20041;-67
2021/09/14 07:17:58;;;;;;;10.48;6.50;;;17.10;94.20;;;;;;5023024;28;20045;-68
2021/09/14 07:20:23;;;;;;;10.43;6.70;;;17.50;94.00;;;;;;5032019;28;20034;-68
2021/09/14 07:22:49;;;;;;;16.42;6.05;;;18.00;93.60;;;;;;5031812;28;20028;-68
2021/09/14 07:25:15;;;;;;;7.47;5.55;;;18.30;93.30;;;;;;5032215;28;20026;-68
2021/09/14 07:27:40;;;;;;;6.78;5.55;;;18.70;93.10;;;;;;5031897;28;20022;-69
2021/09/14 07:30:07;;;;;;;9.50;5.03;;;19.10;92.90;;;;;;5025154;28;20029;-70
2021/09/14 07:32:32;;;;;;;7.85;5.40;;;19.40;92.50;;;;;;5014016;28;20385;-68
2021/09/14 07:34:58;;;;;;;7.70;5.57;;;19.70;92.10;;;;;;5031523;28;20123;-68
2021/09/14 07:37:24;;;;;;;8.45;5.78;;;20.10;91.60;;;;;;5032077;28;20048;-68
2021/09/14 07:39:49;;;;;;;10.25;6.18;;;20.50;91.20;;;;;;5031880;28;20022;-67
2021/09/14 07:42:15;;;;;;;10.20;5.55;;;20.80;90.80;;;;;;5031861;28;20038;-67
2021/09/14 07:44:41;;;;;;;8.15;5.32;;;21.30;90.30;;;;;;5030959;28;20444;-68
2021/09/14 07:47:07;;;;;;;5.80;4.70;;;21.70;89.60;;;;;;5031869;28;20474;-68
2021/09/14 07:49:33;;;;;;;9.50;4.82;;;22.30;88.20;;;;;;5031527;28;20025;-68
2021/09/14 07:51:58;;;;;;;8.15;4.45;;;22.80;86.90;;;;;;5031822;28;20105;-67
2021/09/14 07:54:24;;;;;;;10.82;4.78;;;23.30;85.60;;;;;;5030778;28;20025;-67
2021/09/14 07:56:49;;;;;;;5.95;4.55;;;23.80;84.40;;;;;;5031681;28;20030;-68
2021/09/14 07:59:15;;;;;;;10.75;4.65;;;24.30;83.40;;;;;;5031331;28;20205;-68
2021/09/14 08:01:40;;;;;;;9.98;4.50;;;24.70;82.40;;;;;;5031641;28;20382;-70
2021/09/14 08:04:06;;;;;;;9.90;4.88;;;25.10;81.40;;;;;;5031216;28;20025;-68
2021/09/14 08:06:32;;;;;;;9.25;4.32;;;25.50;80.40;;;;;;5031297;28;20040;-68
2021/09/14 08:08:57;;;;;;;5.10;3.97;;;25.80;79.70;;;;;;5030717;28;20022;-67
2021/09/14 08:11:23;;;;;;;4.47;4.07;;;26.10;78.80;;;;;;5031084;28;20083;-69
2021/09/14 08:13:50;;;;;;;3.80;3.22;;;26.30;78.30;;;;;;5030769;28;20026;-68
2021/09/14 08:16:17;;;;;;;5.57;3.38;;;26.40;77.90;;;;;;5030414;28;20543;-68
2021/09/14 08:18:42;;;;;;;7.70;4.00;;;26.30;77.50;;;;;;5011590;28;20359;-67
2021/09/14 08:21:08;;;;;;;6.93;3.55;;;26.30;77.60;;;;;;5011403;28;20025;-68
2021/09/14 08:23:34;;;;;;;4.57;4.00;;;26.40;78.30;;;;;;5011451;28;20488;-69
2021/09/14 08:26:00;;;;;;;7.88;3.92;;;26.30;78.20;;;;;;5011517;28;20055;-70
2021/09/14 08:28:25;;;;;;;7.43;3.60;;;26.20;78.60;;;;;;5012595;28;20504;-69
2021/09/14 08:30:51;;;;;;;7.38;3.72;;;26.10;78.50;;;;;;5031107;28;20038;-67
2021/09/14 08:33:18;;;;;;;5.90;3.63;;;26.00;78.70;;;;;;5012783;28;20034;-68
2021/09/14 08:35:43;;;;;;;6.85;3.85;;;25.70;79.60;;;;;;5030923;28;20418;-67
2021/09/14 08:38:09;;;;;;;5.10;3.30;;;25.80;80.30;;;;;;5030939;28;20030;-67
2021/09/14 08:43:10;;;;;;;4.03;3.63;;;25.60;78.90;;;;;;5007028;28;20394;-69
2021/09/14 08:45:35;;;;;;;3.55;3.25;;;25.40;78.90;;;;;;5010775;28;20026;-67
2021/09/14 08:48:02;;;;;;;5.43;3.70;;;25.30;79.20;;;;;;5010917;28;20034;-68
2021/09/14 08:50:28;;;;;;;4.47;3.30;;;25.00;78.90;;;;;;5016178;28;20041;-68
2021/09/14 08:52:53;;;;;;;3.35;2.97;;;24.80;79.50;;;;;;4991758;28;20030;-68
2021/09/14 08:55:21;;;;;;;16.40;11.38;;;24.60;80.80;;;;;;4991601;28;20035;-65
2021/09/14 08:57:54;;;;;;;4.97;3.40;;;24.70;81.70;;;;;;4991327;28;20050;-67
2021/09/14 09:00:34;;;;;;;3.97;3.28;;;24.80;81.10;;;;;;4991273;28;20538;-66
2021/09/14 09:03:00;;;;;;;5.72;3.55;;;24.70;80.30;;;;;;4990740;28;20066;-66
2021/09/14 09:05:36;;;;;;;3.53;3.22;;;24.60;81.00;;;;;;4991066;28;20023;-66
2021/09/14 09:08:03;;;;;;;4.72;3.38;;;24.60;82.10;;;;;;4991285;28;20105;-66
2021/09/14 09:10:30;;;;;;;4.28;3.63;;;24.80;81.90;;;;;;4991062;28;20022;-67
2021/09/14 09:12:57;;;;;;;5.57;3.38;;;24.90;81.60;;;;;;4973156;28;20033;-67
2021/09/14 09:15:30;;;;;;;4.28;3.88;;;25.00;81.80;;;;;;4990893;28;20429;-66
2021/09/14 09:18:15;;;;;;;4.93;3.83;;;25.00;80.90;;;;;;4996663;28;20017;-68
2021/09/14 09:20:43;;;;;;;4.25;3.80;;;25.00;80.90;;;;;;5010134;28;20166;-68
2021/09/14 09:23:10;;;;;;;4.70;4.13;;;25.00;81.90;;;;;;5010714;28;20094;-67
2021/09/14 09:25:37;;;;;;;6.15;3.92;;;25.10;81.60;;;;;;5017220;28;20048;-67
2021/09/14 09:28:04;;;;;;;5.60;4.60;;;25.10;81.40;;;;;;5017322;28;20022;-67
2021/09/14 09:30:34;;;;;;;4.95;4.45;;;25.10;81.40;;;;;;5016712;28;20038;-67
2021/09/14 09:33:03;;;;;;;4.88;4.32;;;25.10;80.20;;;;;;5016496;28;20018;-67
2021/09/14 09:35:37;;;;;;;6.25;3.90;;;25.10;81.20;;;;;;5017004;28;20049;-68
2021/09/14 09:38:04;;;;;;;5.38;4.15;;;25.20;79.50;;;;;;5010173;28;20030;-66
2021/09/14 09:40:38;;;;;;;7.32;3.22;;;25.30;78.50;;;;;;4997560;28;20114;-67
2021/09/14 09:43:08;;;;;;;4.28;3.33;;;25.20;77.80;;;;;;4996694;28;20061;-67
2021/09/14 09:45:47;;;;;;;8.23;3.75;;;25.10;78.30;;;;;;4997277;28;20081;-67
2021/09/14 09:48:15;;;;;;;5.45;3.72;;;25.10;79.40;;;;;;4997402;28;20038;-66
2021/09/14 09:50:42;;;;;;;6.00;3.92;;;25.30;78.60;;;;;;4979665;28;20041;-67
2021/09/14 09:53:10;;;;;;;6.20;3.45;;;25.30;78.60;;;;;;5006035;28;20087;-68
2021/09/14 09:55:36;;;;;;;6.28;3.30;;;25.50;78.10;;;;;;5016976;28;20034;-68
2021/09/14 09:58:04;;;;;;;5.10;3.42;;;25.50;76.90;;;;;;5016684;28;20364;-67
2021/09/14 10:00:37;;;;;;;4.75;3.45;;;25.40;76.80;;;;;;5016767;28;20029;-67
2021/09/14 10:03:08;;;;;;;3.28;2.97;;;25.40;77.50;;;;;;5016313;28;20026;-67
2021/09/14 10:05:36;;;;;;;10.50;3.57;;;25.40;78.10;;;;;;5016631;28;20517;-68
2021/09/14 10:08:10;;;;;;;3.70;3.40;;;25.50;77.30;;;;;;5005121;28;20034;-67
2021/09/14 10:10:37;;;;;;;6.78;4.25;;;25.40;76.80;;;;;;5012725;28;20037;-67
2021/09/14 10:13:04;;;;;;;5.78;3.72;;;25.40;78.00;;;;;;5016089;28;20440;-67
2021/09/14 10:15:44;;;;;;;5.07;3.55;;;25.60;78.30;;;;;;5016562;28;20026;-66
2021/09/14 10:18:11;;;;;;;4.65;3.83;;;25.90;77.80;;;;;;5015413;28;20076;-66
2021/09/14 10:20:44;;;;;;;5.53;3.22;;;26.10;77.10;;;;;;5016216;28;20018;-67
2021/09/14 10:23:17;;;;;;;8.38;4.10;;;26.10;77.10;;;;;;5016088;28;20054;-67
2021/09/14 10:25:51;;;;;;;8.13;3.50;;;26.10;75.00;;;;;;5004800;28;20058;-67
2021/09/14 10:28:20;;;;;;;4.95;3.47;;;26.00;75.70;;;;;;5013103;28;20034;-66
2021/09/14 10:30:48;;;;;;;5.07;3.10;;;26.10;76.50;;;;;;5016283;28;20482;-66
2021/09/14 10:33:25;;;;;;;3.58;3.28;;;26.20;76.20;;;;;;5015806;28;20030;-67
2021/09/14 10:35:51;;;;;;;4.32;2.70;;;26.30;75.30;;;;;;5013875;28;20026;-67
2021/09/14 10:38:18;;;;;;;7.05;3.60;;;26.50;76.40;;;;;;5012519;28;20058;-67
2021/09/14 10:40:49;;;;;;;3.60;2.85;;;26.70;75.60;;;;;;5013035;28;20080;-67
2021/09/14 10:43:34;;;;;;;10.30;3.30;;;26.80;74.10;;;;;;5012704;28;20037;-67
2021/09/14 10:46:01;;;;;;;4.63;2.67;;;26.80;74.70;;;;;;5006949;28;20028;-67
2021/09/14 10:48:27;;;;;;;6.20;3.25;;;26.70;74.30;;;;;;4976001;28;20030;-67
2021/09/14 10:50:55;;;;;;;3.90;2.63;;;26.70;75.20;;;;;;4993110;28;20026;-67
2021/09/14 10:53:31;;;;;;;5.20;3.10;;;26.80;74.80;;;;;;4993010;28;20430;-67
2021/09/14 10:55:59;;;;;;;5.03;3.10;;;26.80;74.70;;;;;;4993192;28;20058;-66
2021/09/14 10:58:26;;;;;;;2.97;2.70;;;26.80;74.20;;;;;;4993065;28;20105;-66
2021/09/14 11:00:53;;;;;;;5.30;2.92;;;26.80;73.80;;;;;;4993595;28;20383;-67
2021/09/14 11:03:19;;;;;;;4.72;2.80;;;26.70;73.30;;;;;;4992881;28;20026;-67
2021/09/14 11:05:53;;;;;;;3.22;2.78;;;26.60;73.20;;;;;;4982965;28;20081;-66
2021/09/14 11:08:26;;;;;;;3.63;3.13;;;26.50;73.30;;;;;;4993033;28;20054;-67
2021/09/14 11:11:02;;;;;;;2.92;2.53;;;26.40;74.10;;;;;;4986244;28;20397;-67
2021/09/14 11:13:30;;;;;;;3.70;3.25;;;26.50;73.50;;;;;;5012063;28;20025;-67
2021/09/14 11:16:01;;;;;;;4.90;3.17;;;26.50;73.30;;;;;;5012315;28;20040;-67
2021/09/14 11:18:29;;;;;;;3.08;2.88;;;26.40;72.90;;;;;;5011104;28;20018;-67
2021/09/14 11:21:19;;;;;;;2.97;2.63;;;26.40;72.90;;;;;;5012752;28;20075;-66
2021/09/14 11:23:49;;;;;;;3.33;3.00;;;26.40;72.80;;;;;;5011831;28;20382;-67
2021/09/14 11:26:18;;;;;;;3.40;2.67;;;26.40;74.30;;;;;;4999044;28;20073;-66
2021/09/14 11:29:00;;;;;;;5.22;3.40;;;26.50;74.50;;;;;;5016007;28;20025;-67
2021/09/14 11:31:31;;;;;;;5.65;2.72;;;26.60;75.40;;;;;;5005802;28;20335;-66
2021/09/14 11:33:57;;;;;;;3.25;2.95;;;26.80;74.90;;;;;;5006559;28;20103;-67
2021/09/14 11:36:24;;;;;;;5.32;2.90;;;26.90;74.70;;;;;;5011977;28;20068;-67
2021/09/14 11:39:00;;;;;;;4.43;2.80;;;27.00;73.90;;;;;;5012077;28;20156;-67
2021/09/14 11:41:36;;;;;;;5.18;2.75;;;27.00;72.70;;;;;;5011866;28;20030;-66
2021/09/14 11:44:02;;;;;;;3.25;2.95;;;27.00;71.80;;;;;;4993564;28;20017;-67
2021/09/14 11:46:28;;;;;;;2.95;2.70;;;27.10;73.60;;;;;;4993968;28;20026;-67
2021/09/14 11:48:58;;;;;;;3.00;2.80;;;27.10;72.90;;;;;;4976763;28;20031;-67
2021/09/14 11:51:27;;;;;;;4.57;3.30;;;27.20;71.90;;;;;;4992177;28;20031;-67
2021/09/14 11:53:53;;;;;;;4.07;3.00;;;27.30;72.40;;;;;;4991689;28;20118;-68
2021/09/14 11:56:23;;;;;;;3.75;2.90;;;27.30;72.80;;;;;;4992217;28;20030;-67
2021/09/14 11:58:49;;;;;;;4.63;2.80;;;27.50;72.30;;;;;;4991821;28;20560;-67
2021/09/14 12:01:17;;;;;;;4.45;2.53;;;27.60;71.40;;;;;;4974451;28;20371;-67
2021/09/14 12:03:55;;;;;;;3.65;2.75;;;27.70;70.80;;;;;;4991881;28;20030;-67
2021/09/14 12:06:33;;;;;;;6.25;2.58;;;27.70;68.80;;;;;;4991928;28;20029;-67
2021/09/14 12:09:01;;;;;;;4.13;2.50;;;27.60;68.50;;;;;;4992105;28;20027;-67
2021/09/14 12:11:28;;;;;;;3.10;2.75;;;27.50;69.40;;;;;;4991719;28;20061;-66
2021/09/14 12:13:57;;;;;;;4.70;2.78;;;27.50;70.10;;;;;;4991467;28;20030;-67
2021/09/14 12:16:32;;;;;;;4.47;2.85;;;27.50;70.10;;;;;;4990325;28;20045;-66
2021/09/14 12:18:58;;;;;;;5.68;3.22;;;27.50;70.00;;;;;;5006891;28;20057;-67
2021/09/14 12:21:25;;;;;;;4.53;2.88;;;27.60;70.10;;;;;;5011060;28;20042;-67
2021/09/14 12:23:51;;;;;;;8.30;3.15;;;27.70;69.30;;;;;;5010780;28;20096;-66
2021/09/14 12:26:25;;;;;;;2.92;2.72;;;27.80;69.30;;;;;;5011258;28;20066;-66
2021/09/14 12:28:54;;;;;;;2.90;2.60;;;27.90;68.10;;;;;;5011041;28;20048;-67
2021/09/14 12:31:20;;;;;;;3.25;2.70;;;28.00;68.90;;;;;;5008461;28;20072;-67
2021/09/14 12:33:46;;;;;;;3.00;2.70;;;28.10;68.80;;;;;;4991162;28;20031;-67
2021/09/14 12:36:12;;;;;;;2.70;2.50;;;28.20;68.40;;;;;;4991253;28;20041;-67
2021/09/14 12:38:40;;;;;;;2.95;2.33;;;28.20;69.10;;;;;;4991257;28;20031;-66
2021/09/14 12:41:06;;;;;;;4.07;2.58;;;28.30;69.70;;;;;;4991401;28;20054;-67
2021/09/14 12:43:32;;;;;;;3.95;2.60;;;28.40;68.90;;;;;;4990855;28;20069;-67
2021/09/14 12:45:58;;;;;;;3.90;2.50;;;28.50;68.50;;;;;;4991376;28;20054;-67
2021/09/14 12:48:24;;;;;;;5.35;2.53;;;28.60;68.00;;;;;;4991257;28;20046;-67
2021/09/14 12:50:50;;;;;;;4.32;2.80;;;28.70;68.30;;;;;;4991052;28;20621;-67
2021/09/14 12:53:16;;;;;;;4.88;2.55;;;28.80;68.00;;;;;;4990618;28;20027;-67
2021/09/14 12:55:41;;;;;;;4.13;2.72;;;28.80;67.80;;;;;;4991377;28;20105;-67
2021/09/14 12:58:07;;;;;;;2.95;2.65;;;28.90;67.70;;;;;;5004868;28;20387;-67
2021/09/14 13:00:35;;;;;;;3.20;2.90;;;28.80;66.70;;;;;;5010704;28;20064;-67
2021/09/14 13:03:01;;;;;;;3.05;2.75;;;28.70;67.40;;;;;;5010287;28;20501;-67
2021/09/14 13:05:29;;;;;;;4.15;2.80;;;28.60;67.70;;;;;;5001287;28;20112;-67
2021/09/14 13:07:55;;;;;;;3.85;2.60;;;28.60;67.30;;;;;;5010572;28;20079;-67
2021/09/14 13:10:21;;;;;;;6.43;2.75;;;28.70;67.50;;;;;;5010401;28;20105;-67
2021/09/14 13:12:50;;;;;;;6.22;3.00;;;28.70;68.10;;;;;;5010126;28;20026;-67
2021/09/14 13:18:00;;;;;;;2.60;2.40;;;28.90;68.20;;;;;;5009218;28;20180;-68
2021/09/14 13:20:27;;;;;;;4.32;2.70;;;28.80;67.70;;;;;;4981078;28;20147;-68
2021/09/14 13:22:53;;;;;;;3.15;2.85;;;28.80;67.70;;;;;;4996668;28;20029;-67
2021/09/14 13:25:19;;;;;;;3.97;2.75;;;28.80;67.20;;;;;;4995535;28;20030;-68
2021/09/14 13:27:45;;;;;;;7.40;3.00;;;28.80;67.40;;;;;;5002683;28;20064;-68
2021/09/14 13:30:11;;;;;;;2.60;2.40;;;28.80;67.80;;;;;;5008564;28;20113;-68
2021/09/14 13:32:37;;;;;;;2.65;2.40;;;28.90;67.30;;;;;;5009598;28;20454;-68
2021/09/14 13:35:03;;;;;;;11.18;3.05;;;28.90;67.50;;;;;;4997843;28;20112;-68
2021/09/14 13:37:28;;;;;;;6.40;3.13;;;28.80;67.80;;;;;;5002198;28;20077;-68
2021/09/14 13:39:54;;;;;;;4.10;3.13;;;28.70;67.80;;;;;;4992416;28;20116;-68
2021/09/14 13:42:23;;;;;;;3.72;2.83;;;28.60;67.30;;;;;;5010251;28;20026;-68
2021/09/14 13:47:20;;;;;;;4.53;3.13;;;28.30;67.40;;;;;;5010206;28;20029;-67